Time;durP1;ratioP1;P1;durP2;ratioP2;P2;SDS_P1;SDS_P2;PMS_P1;PMS_P2;Temp;Humidity;BMP_temperature;BMP_pressure;BME280_temperature;BME280_humidity;BME280_pressure;Samples;Min_cycle;Max_cycle;Signal;HPM_P1;HPM_P2
2023/10/06 00:02:28;;;;;;;14.23;6.20;;;15.20;99.90;;;;;;5036126;28;20029;-92
2023/10/06 00:04:54;;;;;;;15.85;6.60;;;15.80;99.90;;;;;;5051505;28;20030;-92
2023/10/06 00:07:23;;;;;;;12.63;6.00;;;16.40;99.90;;;;;;5054394;28;20052;-92
2023/10/06 00:09:53;;;;;;;14.65;6.35;;;14.90;99.90;;;;;;5059139;28;20041;-92
2023/10/06 00:12:19;;;;;;;14.93;5.53;;;15.40;99.90;;;;;;5060690;28;20010;-93
2023/10/06 00:14:48;;;;;;;12.70;6.85;;;15.60;99.90;;;;;;5059710;28;20038;-93
2023/10/06 00:17:19;;;;;;;12.38;6.30;;;15.10;99.90;;;;;;5058607;28;20055;-93
2023/10/06 00:19:50;;;;;;;18.27;6.38;;;15.10;99.90;;;;;;5054088;28;20039;-92
2023/10/06 00:25:13;;;;;;;15.50;6.70;;;15.10;99.90;;;;;;5052354;28;20037;-92
2023/10/06 00:27:41;;;;;;;9.23;5.35;;;15.40;99.90;;;;;;5042010;28;20041;-93
2023/10/06 00:30:11;;;;;;;14.50;6.93;;;15.10;99.90;;;;;;5032164;28;20044;-91
2023/10/06 00:32:37;;;;;;;9.70;5.65;;;15.00;99.90;;;;;;5033325;28;20022;-92
2023/10/06 00:35:08;;;;;;;17.25;6.40;;;15.90;99.90;;;;;;5015265;28;20105;-94
2023/10/06 00:37:41;;;;;;;;;;;14.40;99.90;;;;;;5036598;28;20040;-94
2023/10/06 00:40:19;;;;;;;11.25;6.07;;;15.00;99.90;;;;;;5050549;28;19905;-94
2023/10/06 00:42:56;;;;;;;12.13;5.28;;;14.70;99.90;;;;;;5052983;28;20057;-93
2023/10/06 00:45:32;;;;;;;16.00;5.40;;;14.80;99.90;;;;;;5043638;28;20393;-91
2023/10/06 00:48:13;;;;;;;10.38;5.60;;;14.80;99.90;;;;;;5042151;28;20343;-93
2023/10/06 00:50:39;;;;;;;7.40;5.90;;;15.00;99.90;;;;;;5044179;28;20049;-94
2023/10/06 00:53:05;;;;;;;11.57;5.25;;;15.00;99.90;;;;;;5043562;28;20045;-94
2023/10/06 00:55:31;;;;;;;11.18;5.60;;;15.70;99.90;;;;;;5046463;28;20033;-96
2023/10/06 00:57:57;;;;;;;10.50;4.85;;;15.40;99.90;;;;;;5047703;28;20042;-93
2023/10/06 01:00:24;;;;;;;9.30;5.47;;;15.00;99.90;;;;;;5044145;28;20029;-95
2023/10/06 01:02:50;;;;;;;12.52;5.95;;;15.40;99.90;;;;;;5041830;28;20041;-93
2023/10/06 01:05:21;;;;;;;14.90;5.10;;;15.00;99.90;;;;;;5044833;28;20097;-94
2023/10/06 01:07:56;;;;;;;10.05;5.32;;;14.70;99.90;;;;;;5047237;28;20037;-93
2023/10/06 01:10:34;;;;;;;11.02;5.25;;;15.00;99.90;;;;;;5053698;28;20050;-91
2023/10/06 01:13:14;;;;;;;13.57;5.15;;;15.70;99.90;;;;;;5030986;28;20071;-95
2023/10/06 01:15:55;;;;;;;10.65;4.80;;;15.00;99.90;;;;;;5043139;28;20026;-93
2023/10/06 01:18:33;;;;;;;10.80;4.47;;;16.10;99.90;;;;;;5041542;28;20029;-93
2023/10/06 01:21:17;;;;;;;10.60;4.95;;;15.00;99.90;;;;;;5025332;28;20505;-95
2023/10/06 01:23:47;;;;;;;15.57;5.28;;;14.60;99.90;;;;;;5002402;28;20034;-94
2023/10/06 01:26:13;;;;;;;10.90;4.63;;;15.20;99.90;;;;;;5027592;28;20026;-94
2023/10/06 01:28:45;;;;;;;14.35;5.07;;;15.10;99.90;;;;;;5027466;28;20026;-93
2023/10/06 01:31:12;;;;;;;11.55;4.95;;;15.00;99.90;;;;;;5039989;23;20049;-94
2023/10/06 01:33:38;;;;;;;15.60;5.70;;;15.90;99.90;;;;;;5057538;28;20044;-94
2023/10/06 01:36:13;;;;;;;9.55;4.82;;;15.20;99.90;;;;;;5043547;28;20469;-93
2023/10/06 01:39:16;;;;;;;10.32;5.22;;;15.00;99.90;;;;;;5072437;28;20044;-94
2023/10/06 01:42:39;;;;;;;11.80;5.53;;;14.80;99.90;;;;;;5058212;28;20047;-94
2023/10/06 01:45:14;;;;;;;13.60;5.40;;;15.00;99.90;;;;;;5034498;28;20020;-94
2023/10/06 01:53:42;;;;;;;14.00;5.68;;;13.90;99.90;;;;;;5056263;28;20051;-94
2023/10/06 01:56:14;;;;;;;12.07;5.07;;;15.00;99.90;;;;;;5058225;28;20005;-94
2023/10/06 01:58:45;;;;;;;14.60;5.53;;;14.30;99.90;;;;;;5023718;28;20048;-93
2023/10/06 02:01:18;;;;;;;11.18;4.95;;;14.90;99.90;;;;;;5054567;28;20033;-93
2023/10/06 02:04:17;;;;;;;;;;;;;;;;;;;;;
2023/10/06 02:10:01;;;;;;;13.65;5.05;;;14.90;99.90;;;;;;5264810;22;20308;-95
2023/10/06 02:12:30;;;;;;;12.15;5.43;;;14.90;99.90;;;;;;5056400;28;20038;-92
2023/10/06 02:15:00;;;;;;;10.52;4.55;;;16.30;99.90;;;;;;5053642;28;20090;-93
2023/10/06 02:17:26;;;;;;;;;;;14.90;99.90;;;;;;5050615;28;20040;-93
2023/10/06 02:19:52;;;;;;;8.73;4.28;;;15.20;99.90;;;;;;5056469;28;19897;-93
2023/10/06 02:22:18;;;;;;;9.07;5.00;;;14.90;99.90;;;;;;5057139;28;20012;-94
2023/10/06 02:24:52;;;;;;;13.05;5.15;;;14.80;99.90;;;;;;5057723;28;20120;-93
2023/10/06 02:27:24;;;;;;;9.80;4.38;;;15.50;99.90;;;;;;5046047;28;20018;-94
2023/10/06 02:29:52;;;;;;;8.77;4.93;;;15.40;99.90;;;;;;5038113;28;20029;-94
2023/10/06 02:32:21;;;;;;;9.55;4.50;;;14.80;99.90;;;;;;5037375;28;20038;-94
2023/10/06 02:34:49;;;;;;;11.73;4.45;;;14.60;99.90;;;;;;5025213;28;20030;-93
2023/10/06 02:37:21;;;;;;;12.13;4.65;;;14.70;99.90;;;;;;5028063;28;20126;-94
2023/10/06 02:39:48;;;;;;;14.05;4.90;;;14.90;99.90;;;;;;5032237;28;20032;-93
2023/10/06 02:42:14;;;;;;;20.48;4.40;;;14.70;99.90;;;;;;5031874;28;20030;-93
2023/10/06 02:51:47;;;;;;;9.15;4.53;;;15.50;99.90;;;;;;4993083;28;20065;-94
2023/10/06 02:55:09;;;;;;;8.20;4.88;;;14.70;99.90;;;;;;4982796;28;20106;-94
2023/10/06 02:57:39;;;;;;;11.98;5.38;;;14.70;99.90;;;;;;4950423;28;20051;-94
2023/10/06 03:03:02;;;;;;;15.35;5.85;;;14.60;99.90;;;;;;4995622;28;20017;-93
2023/10/06 03:08:20;;;;;;;13.38;5.53;;;14.70;99.90;;;;;;4979487;28;20078;-94
2023/10/06 03:11:22;;;;;;;14.82;5.45;;;15.40;99.90;;;;;;4977538;28;20039;-95
2023/10/06 03:13:54;;;;;;;13.75;6.07;;;14.80;99.90;;;;;;4985029;28;20106;-93
2023/10/06 03:16:31;;;;;;;12.80;6.03;;;14.50;99.90;;;;;;5001635;28;20103;-93
2023/10/06 03:27:31;;;;;;;9.00;5.82;;;14.60;99.90;;;;;;5042562;28;20064;-93
2023/10/06 03:30:08;;;;;;;13.88;6.40;;;14.50;99.90;;;;;;5050559;28;20093;-91
2023/10/06 03:32:38;;;;;;;16.52;7.32;;;15.70;99.90;;;;;;5058394;28;20171;-92
2023/10/06 03:35:35;;;;;;;22.88;7.60;;;14.40;99.90;;;;;;5051573;28;20029;-93
2023/10/06 03:44:03;;;;;;;13.82;7.20;;;14.40;99.90;;;;;;5070209;28;20063;-93
2023/10/06 03:46:38;;;;;;;10.55;7.55;;;14.30;99.90;;;;;;5068394;28;20021;-92
2023/10/06 03:49:04;;;;;;;16.05;7.43;;;14.40;99.90;;;;;;5068477;28;20029;-94
2023/10/06 03:51:38;;;;;;;21.88;7.38;;;14.40;99.90;;;;;;5068480;28;20083;-93
2023/10/06 03:54:04;;;;;;;11.85;6.85;;;14.40;99.90;;;;;;5050170;28;20025;-93
2023/10/06 03:56:33;;;;;;;14.05;6.28;;;14.40;99.90;;;;;;5043113;28;20045;-93
2023/10/06 03:59:00;;;;;;;14.98;7.03;;;14.60;99.90;;;;;;5023080;28;20545;-94
2023/10/06 04:01:31;;;;;;;10.27;6.00;;;14.10;99.90;;;;;;5027620;28;20018;-93
2023/10/06 04:04:15;;;;;;;12.02;6.70;;;13.80;99.90;;;;;;5039030;28;20057;-94
2023/10/06 04:06:50;;;;;;;13.07;6.63;;;14.00;99.90;;;;;;5008935;28;20036;-94
2023/10/06 04:09:49;;;;;;;18.05;6.20;;;15.30;99.90;;;;;;5029175;28;20025;-93
2023/10/06 04:12:07;;;;;;;13.38;7.35;;;15.30;99.90;;;;;;5048187;28;20037;-92
2023/10/06 04:14:40;;;;;;;14.07;6.00;;;14.40;99.90;;;;;;5053185;28;20021;-94
2023/10/06 04:17:14;;;;;;;13.93;6.43;;;15.20;99.90;;;;;;5054341;28;20060;-94
2023/10/06 04:19:41;;;;;;;16.65;6.57;;;14.30;99.90;;;;;;5037244;28;20054;-91
2023/10/06 04:22:08;;;;;;;10.55;6.32;;;14.90;99.90;;;;;;5050871;28;20497;-93
2023/10/06 04:24:34;;;;;;;13.57;6.63;;;14.30;99.90;;;;;;5048828;28;20029;-94
2023/10/06 04:27:21;;;;;;;10.50;6.65;;;13.90;99.90;;;;;;5035606;28;20042;-94
2023/10/06 04:29:49;;;;;;;16.10;6.88;;;14.20;99.90;;;;;;5026954;28;20053;-91
2023/10/06 04:32:15;;;;;;;12.30;6.40;;;15.50;99.90;;;;;;5038625;28;20029;-94
2023/10/06 04:34:41;;;;;;;12.25;6.57;;;15.40;99.90;;;;;;5037680;28;20115;-94
2023/10/06 04:37:07;;;;;;;16.67;6.15;;;14.40;99.90;;;;;;5038319;28;20069;-94
2023/10/06 04:39:39;;;;;;;13.48;6.82;;;15.10;99.90;;;;;;5039564;28;20033;-95
2023/10/06 04:42:04;;;;;;;12.38;6.28;;;14.90;99.90;;;;;;5036321;28;20109;-94
2023/10/06 04:44:30;;;;;;;9.32;6.22;;;14.40;99.90;;;;;;5036418;28;20056;-92
2023/10/06 04:46:56;;;;;;;14.70;6.47;;;14.60;99.90;;;;;;5036889;28;20061;-93
2023/10/06 04:49:22;;;;;;;13.23;6.00;;;14.30;99.90;;;;;;5036221;28;20032;-92
2023/10/06 04:51:48;;;;;;;15.20;7.85;;;14.90;99.90;;;;;;5036468;28;20030;-93
2023/10/06 04:54:14;;;;;;;12.45;5.85;;;14.40;99.90;;;;;;5036463;28;20021;-93
2023/10/06 04:56:39;;;;;;;14.10;6.35;;;15.30;99.90;;;;;;5038639;28;20088;-94
2023/10/06 04:59:06;;;;;;;18.05;6.55;;;14.90;99.90;;;;;;5043409;28;20057;-93
2023/10/06 05:01:32;;;;;;;19.20;6.88;;;14.60;99.90;;;;;;5053009;28;20014;-94
2023/10/06 05:07:24;;;;;;;17.80;6.35;;;14.40;99.90;;;;;;5040064;28;20055;-85
2023/10/06 05:10:13;;;;;;;13.13;6.28;;;13.50;99.90;;;;;;5060887;22;20040;-94
2023/10/06 05:12:54;;;;;;;12.20;6.32;;;14.40;99.90;;;;;;5069979;28;20096;-93
2023/10/06 05:15:32;;;;;;;14.57;6.28;;;14.40;99.90;;;;;;5074737;28;20055;-93
2023/10/06 05:18:03;;;;;;;11.68;6.53;;;14.40;99.90;;;;;;5075288;28;20021;-93
2023/10/06 05:20:35;;;;;;;16.50;6.07;;;15.30;99.90;;;;;;5075878;28;20050;-92
2023/10/06 05:23:06;;;;;;;17.70;6.47;;;14.30;99.90;;;;;;5073055;28;20025;-93
2023/10/06 05:25:34;;;;;;;11.20;6.38;;;12.90;99.90;;;;;;5075024;28;20025;-92
2023/10/06 05:28:10;;;;;;;16.15;6.70;;;14.80;99.90;;;;;;5077367;28;20005;-94
2023/10/06 05:37:43;;;;;;;16.05;6.45;;;14.40;99.90;;;;;;5071672;28;20052;-94
2023/10/06 05:40:29;;;;;;;13.32;6.57;;;14.40;99.90;;;;;;5056216;28;20028;-95
2023/10/06 05:43:04;;;;;;;11.02;6.43;;;14.50;99.90;;;;;;5053853;28;20032;-93
2023/10/06 05:45:30;;;;;;;11.65;6.65;;;14.90;99.90;;;;;;5055437;28;20090;-93
2023/10/06 05:48:16;;;;;;;12.57;6.40;;;14.30;99.90;;;;;;5055429;28;20457;-93
2023/10/06 05:51:08;;;;;;;11.85;6.63;;;14.40;99.90;;;;;;5056398;28;20029;-93
2023/10/06 05:53:56;;;;;;;14.88;6.32;;;13.50;99.90;;;;;;5054572;28;20104;-94
2023/10/06 05:56:45;;;;;;;13.52;6.85;;;14.30;99.90;;;;;;5070636;28;20051;-91
2023/10/06 05:59:12;;;;;;;12.02;6.35;;;15.00;99.90;;;;;;5058954;28;20031;-92
2023/10/06 06:02:00;;;;;;;10.55;6.38;;;15.70;99.90;;;;;;5071704;28;20035;-93
2023/10/06 06:04:48;;;;;;;12.70;6.90;;;14.60;99.90;;;;;;5069448;28;20017;-95
2023/10/06 06:07:34;;;;;;;15.70;6.70;;;14.50;99.90;;;;;;5058380;28;20013;-91
2023/10/06 06:10:19;;;;;;;15.50;6.45;;;15.50;99.90;;;;;;5055965;28;20024;-94
2023/10/06 06:12:57;;;;;;;15.05;6.50;;;14.50;99.90;;;;;;5060088;28;20025;-93
2023/10/06 06:15:25;;;;;;;15.40;6.55;;;14.50;99.90;;;;;;5064126;28;20077;-93
2023/10/06 06:17:52;;;;;;;17.02;6.07;;;15.10;99.90;;;;;;5066324;28;20044;-92
2023/10/06 06:20:41;;;;;;;;;;;;;;;;;;;;;
2023/10/06 06:23:15;;;;;;;30.70;7.07;;;14.00;99.90;;;;;;5204982;22;20083;-94
2023/10/06 06:25:42;;;;;;;16.88;6.22;;;14.60;99.90;;;;;;5097156;28;20020;-94
2023/10/06 06:28:22;;;;;;;13.73;6.55;;;14.40;99.90;;;;;;5097091;28;20020;-93
2023/10/06 06:30:50;;;;;;;14.68;6.53;;;15.00;99.90;;;;;;5096671;28;20036;-94
2023/10/06 06:33:27;;;;;;;14.18;6.38;;;13.50;99.90;;;;;;5087890;28;20038;-94
2023/10/06 06:36:04;;;;;;;18.98;6.55;;;14.40;99.90;;;;;;5077945;28;20476;-94
2023/10/06 06:38:49;;;;;;;14.27;7.25;;;14.40;99.90;;;;;;5084262;28;20040;-94
2023/10/06 06:41:27;;;;;;;15.93;7.25;;;13.40;99.90;;;;;;5062099;28;20112;-94
2023/10/06 06:44:26;;;;;;;13.75;7.15;;;15.70;99.90;;;;;;5057761;28;20040;-94
2023/10/06 06:49:23;;;;;;;18.17;7.13;;;14.40;99.90;;;;;;5182116;22;20057;-92
2023/10/06 06:51:52;;;;;;;17.25;7.05;;;14.50;99.90;;;;;;5038815;28;20045;-91
2023/10/06 06:54:23;;;;;;;17.63;7.22;;;14.40;99.90;;;;;;5039796;28;20026;-91
2023/10/06 06:57:04;;;;;;;12.75;6.80;;;14.40;99.90;;;;;;5043338;28;20033;-91
2023/10/06 06:59:49;;;;;;;14.20;6.93;;;15.80;99.90;;;;;;5037800;28;20025;-92
2023/10/06 07:02:23;;;;;;;19.38;7.03;;;14.40;99.90;;;;;;5026800;28;20027;-92
2023/10/06 07:05:07;;;;;;;14.15;6.60;;;15.80;99.90;;;;;;5038325;28;20069;-91
2023/10/06 07:07:33;;;;;;;13.75;6.93;;;14.50;99.90;;;;;;5037087;28;20025;-90
2023/10/06 07:10:15;;;;;;;11.75;6.45;;;14.60;99.90;;;;;;5035749;28;20072;-91
2023/10/06 07:13:00;;;;;;;15.50;7.03;;;15.10;99.90;;;;;;5036307;28;20034;-91
2023/10/06 07:15:41;;;;;;;12.48;6.72;;;15.70;99.90;;;;;;5038478;28;20042;-91
2023/10/06 07:18:10;;;;;;;14.32;6.53;;;14.50;99.90;;;;;;5016502;28;20037;-92
2023/10/06 07:20:48;;;;;;;14.05;6.38;;;15.90;99.90;;;;;;5016739;28;20029;-94
2023/10/06 07:23:23;;;;;;;18.38;6.82;;;14.40;99.90;;;;;;5023296;28;20025;-92
2023/10/06 07:26:08;;;;;;;12.32;6.45;;;15.40;99.90;;;;;;5020929;28;20105;-91
2023/10/06 07:28:34;;;;;;;16.70;6.78;;;15.60;99.90;;;;;;5031731;28;20490;-90
2023/10/06 07:31:04;;;;;;;13.65;6.97;;;15.70;99.90;;;;;;5031252;28;20030;-89
2023/10/06 07:33:29;;;;;;;12.15;5.60;;;16.00;99.90;;;;;;5016555;28;20026;-85
2023/10/06 07:36:20;;;;;;;12.85;6.45;;;15.70;99.90;;;;;;5026515;28;20025;-88
2023/10/06 07:38:46;;;;;;;13.20;6.70;;;14.70;99.90;;;;;;5035152;28;20037;-84
2023/10/06 07:41:27;;;;;;;27.08;7.43;;;15.30;99.90;;;;;;5035273;28;20033;-86
2023/10/06 07:43:53;;;;;;;17.70;5.82;;;16.20;99.90;;;;;;5025269;28;20445;-87
2023/10/06 07:46:37;;;;;;;9.57;6.22;;;14.80;99.90;;;;;;5016072;28;20105;-89
2023/10/06 07:49:04;;;;;;;16.33;6.32;;;14.80;99.90;;;;;;5025963;28;20486;-88
2023/10/06 07:51:33;;;;;;;13.95;6.55;;;14.90;99.90;;;;;;5034789;28;20025;-87
2023/10/06 07:53:59;;;;;;;10.93;6.05;;;16.20;99.90;;;;;;5034195;28;20132;-88
2023/10/06 07:56:39;;;;;;;21.17;6.47;;;15.00;99.90;;;;;;5036522;28;20036;-88
2023/10/06 07:59:14;;;;;;;13.23;6.15;;;16.40;99.90;;;;;;5034207;28;20034;-87
2023/10/06 08:01:40;;;;;;;16.35;6.55;;;15.00;99.90;;;;;;5034201;28;20025;-88
2023/10/06 08:04:27;;;;;;;16.40;6.65;;;14.90;99.90;;;;;;5031406;28;21663;-89
2023/10/06 08:07:00;;;;;;;12.57;6.13;;;15.50;99.90;;;;;;5026093;28;20021;-89
2023/10/06 08:09:38;;;;;;;15.88;6.07;;;15.20;99.90;;;;;;5035027;28;20032;-87
2023/10/06 08:12:17;;;;;;;15.27;6.70;;;15.20;99.90;;;;;;5035977;28;20045;-88
2023/10/06 08:14:58;;;;;;;16.08;6.95;;;15.50;99.90;;;;;;5035767;28;20025;-87
2023/10/06 08:17:42;;;;;;;17.95;6.95;;;15.20;99.90;;;;;;5035546;28;20088;-89
2023/10/06 08:20:17;;;;;;;13.27;6.25;;;15.80;99.90;;;;;;5035370;28;20026;-89
2023/10/06 08:22:49;;;;;;;15.80;6.63;;;15.50;99.90;;;;;;5034363;28;20026;-86
2023/10/06 08:25:16;;;;;;;8.85;6.00;;;15.20;99.90;;;;;;5034967;28;20029;-87
2023/10/06 08:27:43;;;;;;;15.57;6.88;;;15.20;99.90;;;;;;5032400;28;20052;-88
2023/10/06 08:30:16;;;;;;;12.85;6.88;;;15.30;99.90;;;;;;5034077;28;20017;-87
2023/10/06 08:32:45;;;;;;;15.98;6.72;;;15.20;99.90;;;;;;5027486;28;20539;-91
2023/10/06 08:35:15;;;;;;;14.13;6.57;;;15.30;99.90;;;;;;5031890;28;20045;-92
2023/10/06 08:40:43;;;;;;;16.73;6.57;;;15.30;99.90;;;;;;5089215;22;20068;-92
2023/10/06 08:43:10;;;;;;;13.32;5.95;;;16.00;99.90;;;;;;5075435;28;20024;-86
2023/10/06 08:45:42;;;;;;;9.90;6.15;;;15.30;99.90;;;;;;5058654;28;20040;-89
2023/10/06 08:48:13;;;;;;;10.85;6.07;;;16.40;99.90;;;;;;5048515;28;20056;-87
2023/10/06 08:50:43;;;;;;;11.23;6.60;;;16.60;99.90;;;;;;5032410;28;20529;-85
2023/10/06 08:53:27;;;;;;;14.15;6.30;;;15.50;99.90;;;;;;5043914;28;20034;-86
2023/10/06 08:56:08;;;;;;;12.88;6.07;;;15.50;99.90;;;;;;5053412;28;20021;-86
2023/10/06 08:58:49;;;;;;;18.30;6.90;;;14.00;99.90;;;;;;5045590;28;20037;-86
2023/10/06 09:01:35;;;;;;;14.38;6.70;;;16.30;99.90;;;;;;5046612;28;20441;-84
2023/10/06 09:04:04;;;;;;;11.40;5.88;;;15.60;99.90;;;;;;5035949;28;20109;-88
2023/10/06 09:06:38;;;;;;;15.45;5.90;;;15.70;99.90;;;;;;5034967;28;20021;-86
2023/10/06 09:09:28;;;;;;;17.30;6.32;;;16.10;99.90;;;;;;5050376;28;20029;-92
2023/10/06 09:12:50;;;;;;;14.93;6.60;;;15.60;99.90;;;;;;5043265;28;20036;-93
2023/10/06 09:15:16;;;;;;;16.70;6.63;;;15.70;99.90;;;;;;5055164;28;20029;-92
2023/10/06 09:17:42;;;;;;;11.18;6.10;;;15.80;99.90;;;;;;5054681;28;20519;-91
2023/10/06 09:20:13;;;;;;;13.30;5.95;;;16.70;99.90;;;;;;5051732;28;20025;-89
2023/10/06 09:22:49;;;;;;;15.32;6.88;;;17.00;99.90;;;;;;5053026;28;20108;-90
2023/10/06 09:25:14;;;;;;;23.45;8.10;;;17.10;99.90;;;;;;5054760;28;20081;-92
2023/10/06 09:27:41;;;;;;;11.35;6.53;;;16.00;99.90;;;;;;5076310;28;20033;-90
2023/10/06 09:30:10;;;;;;;15.85;7.35;;;16.20;99.90;;;;;;5075870;28;20017;-92
2023/10/06 09:32:44;;;;;;;20.25;6.68;;;16.20;99.90;;;;;;5059351;28;20032;-91
2023/10/06 09:35:21;;;;;;;16.88;7.18;;;16.30;99.90;;;;;;5059998;28;20028;-90
2023/10/06 09:37:46;;;;;;;10.88;6.15;;;16.50;99.90;;;;;;5055038;28;20036;-91
2023/10/06 09:40:32;;;;;;;11.82;6.85;;;16.30;99.90;;;;;;5055881;28;20036;-91
2023/10/06 09:43:00;;;;;;;14.00;6.03;;;16.40;99.90;;;;;;5044969;28;20421;-89
2023/10/06 09:45:29;;;;;;;12.18;6.20;;;16.50;99.90;;;;;;5054255;28;20075;-92
2023/10/06 09:48:05;;;;;;;11.20;6.00;;;16.50;99.90;;;;;;5053465;28;20059;-92
2023/10/06 09:50:32;;;;;;;14.93;6.18;;;16.70;99.90;;;;;;5054263;28;20477;-89
2023/10/06 09:53:05;;;;;;;13.27;5.85;;;16.50;99.90;;;;;;5052721;28;20032;-90
2023/10/06 09:55:31;;;;;;;10.00;5.65;;;16.50;99.90;;;;;;5053870;28;20100;-90
2023/10/06 09:57:57;;;;;;;13.32;5.40;;;16.60;99.90;;;;;;5053358;28;20047;-90
2023/10/06 10:00:24;;;;;;;14.95;6.20;;;16.60;99.90;;;;;;5052593;28;20021;-89
2023/10/06 10:02:53;;;;;;;16.15;5.70;;;16.70;99.90;;;;;;5051832;28;20477;-93
2023/10/06 10:05:19;;;;;;;12.73;5.22;;;16.70;99.90;;;;;;5044512;28;20036;-89
2023/10/06 10:07:48;;;;;;;17.15;5.50;;;16.70;99.90;;;;;;5043651;28;20036;-91
2023/10/06 10:10:14;;;;;;;15.43;5.47;;;17.30;99.90;;;;;;5045780;28;20477;-93
2023/10/06 10:13:19;;;;;;;13.98;4.95;;;16.90;99.90;;;;;;5032413;28;20056;-93
2023/10/06 10:16:03;;;;;;;14.02;5.75;;;17.00;99.90;;;;;;5034134;28;20093;-94
2023/10/06 10:18:34;;;;;;;15.68;5.63;;;17.00;99.90;;;;;;5033173;28;20033;-93
2023/10/06 10:21:00;;;;;;;;;;;17.10;99.90;;;;;;5033759;28;20032;-93
2023/10/06 10:23:29;;;;;;;16.35;5.65;;;17.00;99.90;;;;;;5037394;28;19905;-93
2023/10/06 10:26:22;;;;;;;11.82;6.03;;;17.10;99.90;;;;;;5038586;28;20032;-94
2023/10/06 10:29:12;;;;;;;24.45;5.90;;;17.10;99.90;;;;;;5034626;28;20393;-93
2023/10/06 10:31:47;;;;;;;16.63;5.30;;;17.10;99.90;;;;;;5040703;28;20091;-93
2023/10/06 10:34:23;;;;;;;12.60;5.57;;;17.10;99.90;;;;;;5041592;28;20511;-93
2023/10/06 10:37:12;;;;;;;15.65;5.97;;;17.20;99.90;;;;;;5042539;28;20048;-94
2023/10/06 10:39:51;;;;;;;13.95;5.60;;;17.10;99.90;;;;;;5037950;28;20033;-93
2023/10/06 10:42:21;;;;;;;10.40;5.38;;;17.10;99.90;;;;;;5042017;28;20132;-93
2023/10/06 10:44:48;;;;;;;13.98;5.00;;;17.20;99.90;;;;;;5043359;28;20018;-93
2023/10/06 10:47:16;;;;;;;15.10;5.88;;;17.10;99.90;;;;;;5046835;28;20049;-94
2023/10/06 10:49:44;;;;;;;12.00;5.80;;;17.10;99.90;;;;;;5046796;28;20033;-94
2023/10/06 10:52:11;;;;;;;17.23;6.05;;;17.00;99.90;;;;;;5044444;28;20033;-92
2023/10/06 10:54:39;;;;;;;15.85;5.20;;;17.60;99.90;;;;;;5041899;28;20052;-92
2023/10/06 10:57:11;;;;;;;13.85;6.60;;;17.00;99.90;;;;;;5041263;28;20508;-93
2023/10/06 11:02:51;;;;;;;10.77;5.80;;;17.00;99.90;;;;;;5044056;28;20033;-93
2023/10/06 11:05:21;;;;;;;15.93;6.07;;;17.00;99.90;;;;;;5042439;28;20021;-94
2023/10/06 11:08:05;;;;;;;14.70;6.25;;;17.00;99.90;;;;;;5041840;28;20088;-92
2023/10/06 11:10:33;;;;;;;16.30;6.05;;;17.00;99.90;;;;;;5043246;28;20091;-91
2023/10/06 11:13:19;;;;;;;13.82;5.50;;;17.00;99.90;;;;;;5043239;28;20030;-91
2023/10/06 11:15:46;;;;;;;10.73;5.57;;;17.00;99.90;;;;;;5043613;28;20025;-94
2023/10/06 11:18:13;;;;;;;15.57;5.75;;;17.40;99.90;;;;;;5045609;28;20030;-93
2023/10/06 11:20:59;;;;;;;12.00;5.43;;;17.00;99.90;;;;;;5042622;28;20018;-94
2023/10/06 11:23:25;;;;;;;12.43;6.03;;;17.10;99.90;;;;;;5044357;28;20032;-94
2023/10/06 11:25:51;;;;;;;12.45;6.07;;;17.60;99.90;;;;;;5042466;28;20033;-93
2023/10/06 11:28:19;;;;;;;13.00;5.30;;;17.10;99.90;;;;;;5041835;28;20045;-93
2023/10/06 11:30:57;;;;;;;11.05;6.07;;;17.60;99.90;;;;;;5033853;28;20030;-93
2023/10/06 11:33:23;;;;;;;12.25;6.40;;;17.10;99.90;;;;;;5038946;28;20037;-93
2023/10/06 11:35:52;;;;;;;22.33;7.05;;;17.50;99.90;;;;;;5038849;28;20225;-94
2023/10/06 11:38:18;;;;;;;14.50;5.55;;;17.60;99.90;;;;;;5042778;28;20033;-90
2023/10/06 11:40:52;;;;;;;20.02;5.95;;;17.30;99.90;;;;;;5051532;28;20033;-94
2023/10/06 11:43:21;;;;;;;15.68;6.45;;;18.10;99.90;;;;;;5060711;28;20092;-92
2023/10/06 11:46:05;;;;;;;13.32;6.18;;;17.40;99.90;;;;;;5060091;28;20013;-92
2023/10/06 11:48:35;;;;;;;12.43;5.82;;;17.50;99.90;;;;;;5060202;28;20052;-93
2023/10/06 11:51:19;;;;;;;18.35;6.20;;;17.60;99.90;;;;;;5054133;28;20179;-93
2023/10/06 11:53:46;;;;;;;24.50;6.47;;;18.00;99.90;;;;;;5044344;28;20045;-93
2023/10/06 11:56:27;;;;;;;16.48;5.65;;;17.80;99.90;;;;;;5040496;28;20053;-93
2023/10/06 11:58:54;;;;;;;16.38;5.32;;;17.60;99.90;;;;;;5043282;28;20033;-93
2023/10/06 12:01:39;;;;;;;13.32;5.07;;;18.40;99.90;;;;;;5041452;28;20029;-93
2023/10/06 12:04:34;;;;;;;13.23;5.22;;;17.50;99.90;;;;;;5038565;28;20088;-92
2023/10/06 12:07:00;;;;;;;18.65;5.25;;;17.60;99.90;;;;;;5039095;28;20076;-94
2023/10/06 12:09:38;;;;;;;11.23;5.03;;;18.90;99.90;;;;;;5040196;28;20025;-94
2023/10/06 12:12:04;;;;;;;13.02;5.15;;;17.30;99.90;;;;;;5039404;28;20025;-94
2023/10/06 12:14:31;;;;;;;15.35;4.78;;;17.80;99.90;;;;;;5038477;28;20036;-92
2023/10/06 12:17:15;;;;;;;14.32;5.00;;;17.90;99.90;;;;;;5037706;28;20022;-93
2023/10/06 12:19:44;;;;;;;15.73;5.45;;;17.90;99.90;;;;;;5036906;28;20084;-94
2023/10/06 12:22:28;;;;;;;12.75;5.07;;;17.90;99.90;;;;;;5037137;28;20461;-93
2023/10/06 12:24:53;;;;;;;8.25;4.70;;;17.90;99.90;;;;;;5040787;28;20053;-92
2023/10/06 12:27:19;;;;;;;19.10;6.30;;;17.90;99.90;;;;;;5059711;28;20021;-94
2023/10/06 12:29:44;;;;;;;9.50;3.80;;;18.00;99.90;;;;;;5058692;28;20009;-92
2023/10/06 12:32:30;;;;;;;11.35;5.35;;;18.20;99.90;;;;;;5056165;28;20029;-91
2023/10/06 12:34:59;;;;;;;14.63;4.43;;;18.00;99.90;;;;;;5051810;28;20026;-94
2023/10/06 12:37:25;;;;;;;14.68;4.38;;;18.60;99.90;;;;;;5038957;28;20034;-94
2023/10/06 12:39:58;;;;;;;11.02;3.83;;;18.90;99.90;;;;;;5042019;28;20073;-94
2023/10/06 12:42:24;;;;;;;12.80;4.80;;;19.30;99.90;;;;;;5039291;28;20061;-93
2023/10/06 12:44:49;;;;;;;12.85;4.50;;;18.60;99.90;;;;;;5044886;28;20113;-94
2023/10/06 12:47:15;;;;;;;16.10;5.35;;;18.30;99.90;;;;;;5040830;28;20084;-93
2023/10/06 12:49:45;;;;;;;14.05;5.30;;;19.30;99.90;;;;;;5038488;28;20025;-94
2023/10/06 12:52:11;;;;;;;13.90;4.53;;;18.30;99.90;;;;;;5039899;28;20044;-94
2023/10/06 12:54:56;;;;;;;11.68;4.70;;;18.30;99.90;;;;;;5037816;28;20025;-94
2023/10/06 12:57:21;;;;;;;11.70;5.18;;;18.10;99.90;;;;;;5038723;28;20091;-93
2023/10/06 13:00:09;;;;;;;16.48;4.75;;;18.30;99.90;;;;;;5036784;28;20390;-94
2023/10/06 13:02:35;;;;;;;12.55;4.95;;;18.90;99.90;;;;;;5036527;28;20024;-94
2023/10/06 13:05:22;;;;;;;13.85;4.60;;;18.70;99.90;;;;;;5035959;28;20025;-92
2023/10/06 13:07:51;;;;;;;13.52;4.30;;;18.40;99.90;;;;;;5036036;28;20026;-94
2023/10/06 13:10:35;;;;;;;11.85;5.20;;;19.30;99.90;;;;;;5036526;28;20083;-94
2023/10/06 13:13:06;;;;;;;15.10;4.78;;;18.40;99.90;;;;;;5037764;28;20056;-94
2023/10/06 13:15:33;;;;;;;18.30;5.32;;;18.70;99.90;;;;;;5039119;28;20075;-94
2023/10/06 13:18:17;;;;;;;14.98;5.22;;;18.60;99.90;;;;;;5033100;28;20040;-95
2023/10/06 13:20:43;;;;;;;22.77;5.72;;;17.80;99.90;;;;;;5038284;28;20031;-93
2023/10/06 13:23:21;;;;;;;8.00;4.93;;;18.90;99.90;;;;;;5039777;28;20018;-94
2023/10/06 13:25:47;;;;;;;9.45;4.55;;;18.70;99.90;;;;;;5036898;28;20028;-93
2023/10/06 13:28:16;;;;;;;14.30;5.20;;;19.10;99.90;;;;;;5037844;28;20025;-93
2023/10/06 13:30:59;;;;;;;22.88;5.82;;;18.90;99.90;;;;;;5036937;28;20460;-94
2023/10/06 13:33:25;;;;;;;11.07;4.70;;;19.50;99.90;;;;;;5038150;28;20029;-93
2023/10/06 13:35:51;;;;;;;9.30;4.80;;;19.00;99.90;;;;;;5039182;28;20048;-93
2023/10/06 13:38:34;;;;;;;12.95;5.40;;;19.10;99.90;;;;;;5039710;28;20025;-94
2023/10/06 13:41:03;;;;;;;10.18;4.43;;;19.30;99.90;;;;;;5035815;28;20052;-93
2023/10/06 13:43:28;;;;;;;17.20;5.20;;;19.20;99.90;;;;;;5039138;28;20045;-93
2023/10/06 13:46:12;;;;;;;12.93;4.88;;;19.20;99.90;;;;;;5039205;28;20022;-94
2023/10/06 13:48:38;;;;;;;14.40;4.28;;;19.10;99.90;;;;;;5041813;28;20031;-93
2023/10/06 13:51:03;;;;;;;9.07;4.13;;;19.30;99.90;;;;;;5042981;28;20022;-93
2023/10/06 13:53:48;;;;;;;15.27;5.05;;;19.40;99.90;;;;;;5041897;28;20085;-94
2023/10/06 13:56:14;;;;;;;20.30;5.40;;;19.40;99.90;;;;;;5039425;28;20025;-93
2023/10/06 13:58:39;;;;;;;9.40;4.72;;;19.50;99.90;;;;;;5038383;28;20044;-93
2023/10/06 14:01:15;;;;;;;;;;;;;;;;;;;;;
2023/10/06 14:03:42;;;;;;;14.25;6.20;;;19.50;99.90;;;;;;5040163;28;20100;-94
2023/10/06 14:06:08;;;;;;;13.93;5.18;;;20.60;99.90;;;;;;5041782;28;20026;-94
2023/10/06 14:08:34;;;;;;;20.92;5.40;;;20.10;99.90;;;;;;5040483;28;20392;-94
2023/10/06 14:11:00;;;;;;;12.32;4.95;;;19.60;99.90;;;;;;5041878;28;20025;-93
2023/10/06 14:13:44;;;;;;;9.52;4.35;;;19.60;99.90;;;;;;5044135;28;20026;-94
2023/10/06 14:16:09;;;;;;;16.25;5.13;;;19.90;99.90;;;;;;5042824;28;20477;-92